createdAt,value
2022-11-25T00:00:25.077Z,58.80
2022-11-25T00:01:25.654Z,59.09
2022-11-25T00:02:26.455Z,59.00
2022-11-25T00:03:27.137Z,58.89
2022-11-25T00:04:27.878Z,59.00
2022-11-25T00:05:28.449Z,59.09
2022-11-25T00:06:29.022Z,59.09
2022-11-25T00:07:29.662Z,59.20
2022-11-25T00:08:30.282Z,59.20
2022-11-25T00:09:31.165Z,59.33
2022-11-25T00:10:31.753Z,59.50
2022-11-25T00:11:32.334Z,59.40
2022-11-25T00:12:32.924Z,59.40
2022-11-25T00:13:33.517Z,59.40
2022-11-25T00:14:34.396Z,59.40
2022-11-25T00:15:34.711Z,59.50
2022-11-25T00:16:35.371Z,59.50
2022-11-25T00:17:35.976Z,59.90
2022-11-25T00:18:36.556Z,59.70
2022-11-25T00:19:37.189Z,59.60
2022-11-25T00:20:37.762Z,59.63
2022-11-25T00:21:38.341Z,59.93
2022-11-25T00:22:38.912Z,60.03
2022-11-25T00:23:39.498Z,60.03
2022-11-25T00:24:40.166Z,60.13
2022-11-25T00:25:40.752Z,60.33
2022-11-25T00:26:41.320Z,60.33
2022-11-25T00:27:41.892Z,60.33
2022-11-25T00:28:42.465Z,60.44
2022-11-25T00:29:43.110Z,60.44
2022-11-25T00:30:43.708Z,60.33
2022-11-25T00:31:44.340Z,60.53
2022-11-25T00:32:44.940Z,61.04
2022-11-25T00:33:45.518Z,61.14
2022-11-25T00:34:46.186Z,60.84
2022-11-25T00:35:46.753Z,60.74
2022-11-25T00:36:47.322Z,60.74
2022-11-25T00:37:47.896Z,60.94
2022-11-25T00:38:48.458Z,61.04
2022-11-25T00:39:49.064Z,60.97
2022-11-25T00:40:49.641Z,61.47
2022-11-25T00:41:50.226Z,61.27
2022-11-25T00:42:50.805Z,61.57
2022-11-25T00:43:51.371Z,61.37
2022-11-25T00:44:52.040Z,61.37
2022-11-25T00:45:52.658Z,61.68
2022-11-25T00:46:53.256Z,61.88
2022-11-25T00:47:53.838Z,61.98
2022-11-25T00:48:54.402Z,61.80
2022-11-25T00:49:55.143Z,61.71
2022-11-25T00:50:55.711Z,62.21
2022-11-25T00:51:56.286Z,62.01
2022-11-25T00:52:56.865Z,62.01
2022-11-25T00:53:59.095Z,62.21
2022-11-25T00:54:58.474Z,62.51
2022-11-25T00:55:59.045Z,62.71
2022-11-25T00:56:59.611Z,62.82
2022-11-25T00:58:00.191Z,63.12
2022-11-25T00:59:00.766Z,62.92
2022-11-25T01:00:01.406Z,62.82
2022-11-25T01:01:02.070Z,63.12
2022-11-25T01:02:02.814Z,62.51
2022-11-25T01:03:03.430Z,62.41
2022-11-25T01:04:04.015Z,62.41
2022-11-25T01:05:04.761Z,62.51
2022-11-25T01:06:05.341Z,62.71
2022-11-25T01:07:05.919Z,62.21
2022-11-25T01:08:06.489Z,62.31
2022-11-25T01:09:07.062Z,61.51
2022-11-25T01:10:07.828Z,62.04
2022-11-25T01:11:08.398Z,62.14
2022-11-25T01:12:08.975Z,62.44
2022-11-25T01:13:09.554Z,62.54
2022-11-25T01:14:10.165Z,62.74
2022-11-25T01:15:10.774Z,62.85
2022-11-25T01:16:11.456Z,62.74
2022-11-25T01:17:12.048Z,62.74
2022-11-25T01:18:12.621Z,62.85
2022-11-25T01:19:13.189Z,62.85
2022-11-25T01:20:13.807Z,62.95
2022-11-25T01:21:14.386Z,62.95
2022-11-25T01:22:14.970Z,63.05
2022-11-25T01:23:15.548Z,63.45
2022-11-25T01:24:16.130Z,63.99
2022-11-25T01:25:16.799Z,63.68
2022-11-25T01:26:17.377Z,63.58
2022-11-25T01:27:17.955Z,63.78
2022-11-25T01:28:18.541Z,64.02
2022-11-25T01:29:19.116Z,63.81
2022-11-25T01:30:19.856Z,63.92
2022-11-25T01:31:20.507Z,63.92
2022-11-25T01:32:21.110Z,64.02
2022-11-25T01:33:21.694Z,64.32
2022-11-25T01:34:22.266Z,64.62
2022-11-25T01:35:22.883Z,64.62
2022-11-25T01:36:23.446Z,64.83
2022-11-25T01:37:24.026Z,64.93
2022-11-25T01:38:24.611Z,64.65
2022-11-25T01:39:31.679Z,64.96
2022-11-25T01:40:26.186Z,65.06
2022-11-25T01:41:26.753Z,65.06
2022-11-25T01:42:27.333Z,64.96
2022-11-25T01:43:27.896Z,65.06
2022-11-25T01:44:28.469Z,64.76
2022-11-25T01:45:29.134Z,64.76
2022-11-25T01:46:29.711Z,64.55
2022-11-25T01:47:30.290Z,64.76
2022-11-25T01:48:30.869Z,64.35
2022-11-25T01:49:31.437Z,64.15
2022-11-25T01:50:32.060Z,64.15
2022-11-25T01:51:32.632Z,64.55
2022-11-25T01:52:33.215Z,64.55
2022-11-25T01:53:33.805Z,64.38
2022-11-25T01:54:34.742Z,64.69
2022-11-25T01:55:35.413Z,64.48
2022-11-25T01:56:35.988Z,64.58
2022-11-25T01:57:36.567Z,64.69
2022-11-25T01:58:37.142Z,64.89
2022-11-25T01:59:37.719Z,64.69
2022-11-25T02:00:38.348Z,65.09
2022-11-25T02:01:38.971Z,65.70
2022-11-25T02:02:39.638Z,65.59
2022-11-25T02:03:40.288Z,65.90
2022-11-25T02:04:40.863Z,65.80
2022-11-25T02:05:41.593Z,65.90
2022-11-25T02:06:42.188Z,66.00
2022-11-25T02:07:42.866Z,65.53
2022-11-25T02:08:43.535Z,64.58
2022-11-25T02:09:44.116Z,64.58
2022-11-25T02:10:44.769Z,63.98
2022-11-25T02:11:45.352Z,64.18
2022-11-25T02:12:45.930Z,64.48
2022-11-25T02:13:46.534Z,64.69
2022-11-25T02:14:47.111Z,65.39
2022-11-25T02:15:47.869Z,65.90
2022-11-25T02:16:48.556Z,66.00
2022-11-25T02:17:49.180Z,65.90
2022-11-25T02:18:49.756Z,65.59
2022-11-25T02:19:50.326Z,66.00
2022-11-25T02:20:50.963Z,65.80
2022-11-25T02:21:51.540Z,66.10
2022-11-25T02:22:52.106Z,66.41
2022-11-25T02:23:52.683Z,66.54
2022-11-25T02:24:53.258Z,66.13
2022-11-25T02:25:54.022Z,66.03
2022-11-25T02:26:54.606Z,66.13
2022-11-25T02:27:55.179Z,66.33
2022-11-25T02:28:55.757Z,66.03
2022-11-25T02:29:56.335Z,66.13
2022-11-25T02:30:57.045Z,66.24
2022-11-25T02:31:57.716Z,66.44
2022-11-25T02:32:58.350Z,67.05
2022-11-25T02:33:58.919Z,67.45
2022-11-25T02:34:59.498Z,67.25
2022-11-25T02:36:00.162Z,66.64
2022-11-25T02:37:00.732Z,66.74
2022-11-25T02:38:01.307Z,66.54
2022-11-25T02:39:01.882Z,65.22
2022-11-25T02:40:02.462Z,66.33
2022-11-25T02:41:03.071Z,66.03
2022-11-25T02:42:03.634Z,66.24
2022-11-25T02:43:04.207Z,66.13
2022-11-25T02:44:04.788Z,66.03
2022-11-25T02:45:05.371Z,66.33
2022-11-25T02:46:06.071Z,66.47
2022-11-25T02:47:06.698Z,66.47
2022-11-25T02:48:07.298Z,66.88
2022-11-25T02:49:09.707Z,67.08
2022-11-25T02:50:08.680Z,66.67
2022-11-25T02:51:09.394Z,66.37
2022-11-25T02:52:09.979Z,66.37
2022-11-25T02:53:10.572Z,66.57
2022-11-25T02:54:11.154Z,66.77
2022-11-25T02:55:11.726Z,66.88
2022-11-25T02:56:12.400Z,66.88
2022-11-25T02:57:12.988Z,67.08
2022-11-25T02:58:13.567Z,66.97
2022-11-25T02:59:14.165Z,66.97
2022-11-25T03:00:14.733Z,66.88
2022-11-25T03:01:15.509Z,67.08
2022-11-25T03:02:16.299Z,67.08
2022-11-25T03:03:16.910Z,66.57
2022-11-25T03:04:17.490Z,66.67
2022-11-25T03:05:18.059Z,67.18
2022-11-25T03:06:18.724Z,67.21
2022-11-25T03:07:19.346Z,67.31
2022-11-25T03:08:19.944Z,67.41
2022-11-25T03:09:20.525Z,67.72
2022-11-25T03:10:21.105Z,68.12
2022-11-25T03:11:21.731Z,68.23
2022-11-25T03:12:22.302Z,68.23
2022-11-25T03:13:22.875Z,68.15
2022-11-25T03:14:23.440Z,68.05
2022-11-25T03:15:23.999Z,68.05
2022-11-25T03:16:24.788Z,67.95
2022-11-25T03:17:25.389Z,67.75
2022-11-25T03:18:25.967Z,67.65
2022-11-25T03:19:26.549Z,67.95
2022-11-25T03:20:27.143Z,67.95
2022-11-25T03:21:27.821Z,67.65
2022-11-25T03:22:28.416Z,67.61
2022-11-25T03:23:29.012Z,67.65
2022-11-25T03:24:29.586Z,67.44
2022-11-25T03:25:30.157Z,67.14
2022-11-25T03:26:30.858Z,67.55
2022-11-25T03:27:31.431Z,67.44
2022-11-25T03:28:31.999Z,67.24
2022-11-25T03:29:32.570Z,67.44
2022-11-25T03:30:33.149Z,67.34
2022-11-25T03:31:33.868Z,67.44
2022-11-25T03:32:34.495Z,67.44
2022-11-25T03:33:35.069Z,67.51
2022-11-25T03:34:35.920Z,67.41
2022-11-25T03:35:36.177Z,67.21
2022-11-25T03:36:36.879Z,67.41
2022-11-25T03:37:37.464Z,67.31
2022-11-25T03:38:38.027Z,66.91
2022-11-25T03:39:38.604Z,66.70
2022-11-25T03:40:39.183Z,66.60
2022-11-25T03:41:39.817Z,66.60
2022-11-25T03:42:40.396Z,66.70
2022-11-25T03:43:40.979Z,66.40
2022-11-25T03:44:41.560Z,66.30
2022-11-25T03:45:42.170Z,66.30
2022-11-25T03:46:42.879Z,66.19
2022-11-25T03:47:43.457Z,65.99
2022-11-25T03:48:44.037Z,66.09
2022-11-25T03:49:44.607Z,66.40
2022-11-25T03:50:45.178Z,66.30
2022-11-25T03:51:45.855Z,66.60
2022-11-25T03:52:46.434Z,66.80
2022-11-25T03:53:47.003Z,67.00
2022-11-25T03:54:47.577Z,67.00
2022-11-25T03:55:48.155Z,66.91
2022-11-25T03:56:48.840Z,66.80
2022-11-25T03:57:49.419Z,66.80
2022-11-25T03:58:49.986Z,67.00
2022-11-25T03:59:50.548Z,67.24
2022-11-25T04:00:51.187Z,67.14
2022-11-25T04:01:51.943Z,67.34
2022-11-25T04:02:52.680Z,67.55
2022-11-25T04:03:53.307Z,67.44
2022-11-25T04:04:53.891Z,67.55
2022-11-25T04:05:54.460Z,67.75
2022-11-25T04:06:55.217Z,67.65
2022-11-25T04:07:58.057Z,67.85
2022-11-25T04:08:56.414Z,67.85
2022-11-25T04:09:56.980Z,67.75
2022-11-25T04:10:57.554Z,67.85
2022-11-25T04:11:58.154Z,67.75
2022-11-25T04:12:58.738Z,67.85
2022-11-25T04:13:59.313Z,68.05
2022-11-25T04:14:59.903Z,67.95
2022-11-25T04:16:00.482Z,68.15
2022-11-25T04:17:01.334Z,67.95
2022-11-25T04:18:01.942Z,67.85
2022-11-25T04:19:02.518Z,67.65
2022-11-25T04:20:03.092Z,67.55
2022-11-25T04:21:03.653Z,67.34
2022-11-25T04:22:05.026Z,67.44
2022-11-25T04:23:05.098Z,67.55
2022-11-25T04:24:05.679Z,67.44
2022-11-25T04:25:06.246Z,67.44
2022-11-25T04:26:06.819Z,67.14
2022-11-25T04:27:07.494Z,66.94
2022-11-25T04:28:08.137Z,66.83
2022-11-25T04:29:08.717Z,66.94
2022-11-25T04:30:09.295Z,67.00
2022-11-25T04:31:09.951Z,67.00
2022-11-25T04:32:10.609Z,67.03
2022-11-25T04:33:11.267Z,67.14
2022-11-25T04:34:11.855Z,67.55
2022-11-25T04:35:12.437Z,67.85
2022-11-25T04:36:13.017Z,67.85
2022-11-25T04:37:13.613Z,68.05
2022-11-25T04:38:14.286Z,67.75
2022-11-25T04:39:14.865Z,67.75
2022-11-25T04:40:15.461Z,67.65
2022-11-25T04:41:16.033Z,67.85
2022-11-25T04:42:16.620Z,67.65
2022-11-25T04:43:17.235Z,67.65
2022-11-25T04:44:17.807Z,67.65
2022-11-25T04:45:23.400Z,67.55
2022-11-25T04:46:19.356Z,67.34
2022-11-25T04:47:19.986Z,67.65
2022-11-25T04:48:20.600Z,67.44
2022-11-25T04:49:21.176Z,67.75
2022-11-25T04:50:21.750Z,67.85
2022-11-25T04:51:22.329Z,67.75
2022-11-25T04:52:22.927Z,67.65
2022-11-25T04:53:23.543Z,67.75
2022-11-25T04:54:24.116Z,67.98
2022-11-25T04:55:24.683Z,67.98
2022-11-25T04:56:25.259Z,67.98
2022-11-25T04:57:25.830Z,68.39
2022-11-25T04:58:26.449Z,68.39
2022-11-25T04:59:26.966Z,68.59
2022-11-25T05:00:27.477Z,68.70
2022-11-25T05:01:28.028Z,68.49
2022-11-25T05:02:28.693Z,68.70
2022-11-25T05:03:29.276Z,68.79
2022-11-25T05:04:29.801Z,68.59
2022-11-25T05:05:30.314Z,68.49
2022-11-25T05:06:30.820Z,68.59
2022-11-25T05:07:31.419Z,68.70
2022-11-25T05:08:32.045Z,68.79
2022-11-25T05:09:32.569Z,68.79
2022-11-25T05:10:33.109Z,68.90
2022-11-25T05:11:33.623Z,68.70
2022-11-25T05:12:34.208Z,68.70
2022-11-25T05:13:34.755Z,68.79
2022-11-25T05:14:35.666Z,68.90
2022-11-25T05:15:35.964Z,68.93
2022-11-25T05:16:36.601Z,68.90
2022-11-25T05:17:37.143Z,69.10
2022-11-25T05:18:37.693Z,69.13
2022-11-25T05:19:38.230Z,69.23
2022-11-25T05:20:38.762Z,69.43
2022-11-25T05:21:39.299Z,70.04
2022-11-25T05:22:39.835Z,70.15
2022-11-25T05:23:46.255Z,69.64
2022-11-25T05:24:40.884Z,69.34
2022-11-25T05:25:41.403Z,69.10
2022-11-25T05:26:41.928Z,69.00
2022-11-25T05:27:42.463Z,68.79
2022-11-25T05:28:43.084Z,68.79
2022-11-25T05:29:43.611Z,68.79
2022-11-25T05:30:44.155Z,68.90
2022-11-25T05:31:44.690Z,69.00
2022-11-25T05:32:45.222Z,69.20
2022-11-25T05:33:45.851Z,69.23
2022-11-25T05:34:46.369Z,69.34
2022-11-25T05:35:46.893Z,69.34
2022-11-25T05:36:47.417Z,69.54
2022-11-25T05:37:47.967Z,69.64
2022-11-25T05:38:48.530Z,69.60
2022-11-25T05:39:49.054Z,69.60
2022-11-25T05:40:49.572Z,69.40
2022-11-25T05:41:50.087Z,69.30
2022-11-25T05:42:50.614Z,69.30
2022-11-25T05:43:54.662Z,69.20
2022-11-25T05:44:52.009Z,69.20
2022-11-25T05:45:52.630Z,69.30
2022-11-25T05:46:53.202Z,69.40
2022-11-25T05:47:55.332Z,69.40
2022-11-25T05:48:54.453Z,69.40
2022-11-25T05:49:54.959Z,69.30
2022-11-25T05:50:55.494Z,69.40
2022-11-25T05:51:56.577Z,69.30
2022-11-25T05:52:56.957Z,69.20
2022-11-25T05:53:57.608Z,69.10
2022-11-25T05:54:58.503Z,69.20
2022-11-25T05:55:58.870Z,69.30
2022-11-25T05:57:38.315Z,69.30
2022-11-25T05:58:06.013Z,69.30
2022-11-25T05:59:01.716Z,69.40
2022-11-25T06:00:01.836Z,69.17
2022-11-25T06:01:03.310Z,69.17
2022-11-25T06:02:29.312Z,68.96
2022-11-25T06:03:04.047Z,69.07
2022-11-25T06:04:10.414Z,69.07
2022-11-25T06:05:05.552Z,68.76
2022-11-25T06:06:06.256Z,68.87
2022-11-25T06:07:06.294Z,68.93
2022-11-25T06:08:06.861Z,68.83
2022-11-25T06:09:07.384Z,68.73
2022-11-25T06:10:07.972Z,68.52
2022-11-25T06:11:08.750Z,68.32
2022-11-25T06:12:09.286Z,68.32
2022-11-25T06:13:18.051Z,68.32
2022-11-25T06:14:10.420Z,68.09
2022-11-25T06:15:10.952Z,68.09
2022-11-25T06:16:12.011Z,67.79
2022-11-25T06:17:12.277Z,67.38
2022-11-25T06:18:12.883Z,67.48
2022-11-25T06:19:13.456Z,67.65
2022-11-25T06:20:13.978Z,67.65
2022-11-25T06:21:14.927Z,67.35
2022-11-25T06:22:15.355Z,67.25
2022-11-25T06:23:15.899Z,67.01
2022-11-25T06:24:16.465Z,67.11
2022-11-25T06:25:17.014Z,67.22
2022-11-25T06:26:17.525Z,67.32
2022-11-25T06:27:18.050Z,67.32
2022-11-25T06:28:18.591Z,67.22
2022-11-25T06:29:19.253Z,67.08
2022-11-25T06:30:19.794Z,67.08
2022-11-25T06:31:20.441Z,67.08
2022-11-25T06:32:21.068Z,67.18
2022-11-25T06:33:21.587Z,67.18
2022-11-25T06:34:22.197Z,67.08
2022-11-25T06:35:22.712Z,67.18
2022-11-25T06:36:23.277Z,67.05
2022-11-25T06:37:23.855Z,66.95
2022-11-25T06:38:24.449Z,66.95
2022-11-25T06:39:25.007Z,67.05
2022-11-25T06:40:25.519Z,67.25
2022-11-25T06:41:26.039Z,66.95
2022-11-25T06:42:26.551Z,66.75
2022-11-25T06:43:27.704Z,67.05
2022-11-25T06:44:27.814Z,66.95
2022-11-25T06:45:29.375Z,67.05
2022-11-25T06:46:29.076Z,66.85
2022-11-25T06:47:29.600Z,66.95
2022-11-25T06:48:30.489Z,66.82
2022-11-25T06:49:32.795Z,66.82
2022-11-25T06:50:32.233Z,66.82
2022-11-25T06:51:32.484Z,66.82
2022-11-25T06:52:32.996Z,66.52
2022-11-25T06:53:33.542Z,66.21
2022-11-25T06:54:38.261Z,66.11
2022-11-25T06:55:34.894Z,66.11
2022-11-25T06:56:35.772Z,66.18
2022-11-25T06:58:34.865Z,65.98
2022-11-25T06:58:37.157Z,66.28
2022-11-25T06:59:51.700Z,66.18
2022-11-25T07:00:57.729Z,65.78
2022-11-25T07:01:44.284Z,64.53
2022-11-25T07:02:43.019Z,64.94
2022-11-25T07:03:45.277Z,64.53
2022-11-25T07:04:41.125Z,64.30
2022-11-25T07:05:47.643Z,64.30
2022-11-25T07:06:43.715Z,63.90
2022-11-25T07:07:50.737Z,63.79
2022-11-25T07:08:46.247Z,63.87
2022-11-25T07:09:44.412Z,63.56
2022-11-25T07:10:45.154Z,63.56
2022-11-25T07:11:48.720Z,63.67
2022-11-25T07:13:13.131Z,63.36
2022-11-25T07:14:05.775Z,63.76
2022-11-25T07:14:49.295Z,63.87
2022-11-25T07:25:30.829Z,64.34
2022-11-25T07:26:01.962Z,64.14
2022-11-25T07:27:02.543Z,63.73
2022-11-25T07:28:03.108Z,64.24
2022-11-25T07:29:03.627Z,64.14
2022-11-25T07:30:54.496Z,63.84
2022-11-25T07:32:10.503Z,62.90
2022-11-25T07:33:06.853Z,61.89
2022-11-25T07:34:07.459Z,62.19
2022-11-25T07:35:08.030Z,62.40
2022-11-25T07:36:08.836Z,62.19
2022-11-25T07:37:09.358Z,62.29
2022-11-25T07:38:09.905Z,61.96
2022-11-25T07:39:10.919Z,61.05
2022-11-25T07:40:11.239Z,62.16
2022-11-25T07:41:11.818Z,62.06
2022-11-25T07:42:12.374Z,60.96
2022-11-25T07:43:13.004Z,61.76
2022-11-25T07:44:13.521Z,61.03
2022-11-25T07:45:14.043Z,61.33
2022-11-25T07:46:16.023Z,61.03
2022-11-25T07:47:15.466Z,61.53
2022-11-25T07:48:16.005Z,61.13
2022-11-25T07:49:16.524Z,61.63
2022-11-25T07:50:17.038Z,60.39
2022-11-25T07:51:17.600Z,59.69
2022-11-25T07:52:18.158Z,60.89
2022-11-25T07:53:28.314Z,61.20
2022-11-25T07:54:21.890Z,60.60
2022-11-25T07:55:22.533Z,60.60
2022-11-25T07:56:22.701Z,60.77
2022-11-25T07:57:29.039Z,60.47
2022-11-25T07:58:30.148Z,59.06
2022-11-25T07:59:30.961Z,59.26
2022-11-25T08:00:26.734Z,59.46
2022-11-25T08:01:29.002Z,59.56
2022-11-25T08:02:38.984Z,58.86
2022-11-25T08:03:26.664Z,58.05
2022-11-25T08:04:27.180Z,58.02
2022-11-25T08:05:27.726Z,58.33
2022-11-25T08:06:29.634Z,58.93
2022-11-25T08:07:34.897Z,58.42
2022-11-25T08:08:30.090Z,58.93
2022-11-25T08:09:32.794Z,58.22
2022-11-25T08:10:31.323Z,55.71
2022-11-25T08:11:32.308Z,59.23
2022-11-25T08:12:32.374Z,58.62
2022-11-25T08:13:32.963Z,58.33
2022-11-25T08:14:33.901Z,57.52
2022-11-25T08:15:34.556Z,58.29
2022-11-25T08:16:35.187Z,57.19
2022-11-25T08:17:35.709Z,56.59
2022-11-25T08:18:36.238Z,55.88
2022-11-25T08:19:37.248Z,57.39
2022-11-25T08:20:37.348Z,58.09
2022-11-25T08:21:37.915Z,56.38
2022-11-25T08:22:38.449Z,57.59
2022-11-25T08:23:41.854Z,58.60
2022-11-25T08:24:39.947Z,58.09
2022-11-25T08:25:40.485Z,58.47
2022-11-25T08:26:41.078Z,57.26
2022-11-25T08:27:41.607Z,57.37
2022-11-25T08:28:42.131Z,57.26
2022-11-25T08:29:42.670Z,56.16
2022-11-25T08:30:43.211Z,57.26
2022-11-25T08:31:43.923Z,57.06
2022-11-25T08:32:55.726Z,57.26
2022-11-25T08:33:45.387Z,56.86
2022-11-25T08:34:45.939Z,57.87
2022-11-25T08:35:46.689Z,57.77
2022-11-25T08:36:48.799Z,57.57
2022-11-25T08:37:48.105Z,54.35
2022-11-25T08:38:49.364Z,53.95
2022-11-25T08:39:52.814Z,55.13
2022-11-25T08:40:50.639Z,57.04
2022-11-25T08:41:51.483Z,57.64
2022-11-25T08:42:52.093Z,58.04
2022-11-25T08:43:52.706Z,57.64
2022-11-25T08:44:54.053Z,57.44
2022-11-25T08:45:54.175Z,57.84
2022-11-25T08:46:56.082Z,57.64
2022-11-25T08:47:56.028Z,56.93
2022-11-25T08:49:01.001Z,57.44
2022-11-25T08:50:02.298Z,57.44
2022-11-25T08:51:35.020Z,55.43
2022-11-25T08:52:29.359Z,54.43
2022-11-25T08:53:07.100Z,53.90
2022-11-25T08:54:07.905Z,54.20
2022-11-25T08:55:01.674Z,55.80
2022-11-25T08:56:25.786Z,53.70
2022-11-25T08:57:11.650Z,54.20
2022-11-25T08:58:09.676Z,55.40
2022-11-25T08:59:10.096Z,54.40
2022-11-25T09:00:04.805Z,55.40
2022-11-25T09:01:05.352Z,55.51
2022-11-25T09:02:05.977Z,54.60
2022-11-25T09:03:06.822Z,54.90
2022-11-25T09:04:15.863Z,54.90
2022-11-25T09:05:10.031Z,53.77
2022-11-25T09:06:08.810Z,54.68
2022-11-25T09:07:09.628Z,54.68
2022-11-25T09:08:10.726Z,53.87
2022-11-25T09:09:11.214Z,54.27
2022-11-25T09:10:11.664Z,53.67
2022-11-25T09:11:12.367Z,54.97
2022-11-25T09:12:12.924Z,53.77
2022-11-25T09:13:13.550Z,53.57
2022-11-25T09:14:15.267Z,54.58
2022-11-25T09:15:17.976Z,54.38
2022-11-25T09:16:27.078Z,54.68
2022-11-25T09:19:05.785Z,53.17
2022-11-25T09:20:07.658Z,53.97
2022-11-25T09:21:08.202Z,53.67
2022-11-25T09:22:08.762Z,53.57
2022-11-25T09:23:09.309Z,52.87
2022-11-25T09:24:09.882Z,53.27
2022-11-25T09:25:10.439Z,53.25
2022-11-25T09:26:10.972Z,53.55
2022-11-25T09:27:11.499Z,53.55
2022-11-25T09:28:12.023Z,52.44
2022-11-25T09:29:12.995Z,52.94
2022-11-25T09:30:13.092Z,52.24
2022-11-25T09:31:13.712Z,52.34
2022-11-25T09:32:14.294Z,50.34
2022-11-25T09:33:15.014Z,52.04
2022-11-25T09:34:15.690Z,52.44
2022-11-25T09:35:16.328Z,51.14
2022-11-25T09:36:16.886Z,50.34
2022-11-25T09:37:17.395Z,50.74
2022-11-25T09:38:17.910Z,50.54
2022-11-25T09:39:19.618Z,52.64
2022-11-25T09:40:19.181Z,51.24
2022-11-25T09:41:19.701Z,54.35
2022-11-25T09:42:20.215Z,53.14
2022-11-25T09:43:24.849Z,53.34
2022-11-25T09:44:21.587Z,53.72
2022-11-25T09:45:53.845Z,54.32
2022-11-25T09:46:31.295Z,51.51
2022-11-25T09:47:23.757Z,51.62
2022-11-25T09:48:24.286Z,51.92
2022-11-25T09:49:28.548Z,51.01
2022-11-25T09:50:26.273Z,52.42
2022-11-25T09:51:26.673Z,52.72
2022-11-25T09:52:27.379Z,53.22
2022-11-25T09:53:28.036Z,52.82
2022-11-25T09:54:28.589Z,53.62
2022-11-25T09:55:29.120Z,53.02
2022-11-25T09:56:29.659Z,53.12
2022-11-25T09:57:30.193Z,53.02
2022-11-25T09:58:30.721Z,52.82
2022-11-25T09:59:31.391Z,51.59
2022-11-25T10:00:31.947Z,52.69
2022-11-25T10:01:32.583Z,53.39
2022-11-25T10:02:37.545Z,52.89
2022-11-25T10:03:49.375Z,52.49
2022-11-25T10:04:35.886Z,53.69
2022-11-25T10:05:35.949Z,53.19
2022-11-25T10:06:36.631Z,53.30
2022-11-25T10:07:37.426Z,53.39
2022-11-25T10:08:42.163Z,53.59
2022-11-25T10:09:39.435Z,53.00
2022-11-25T10:10:47.816Z,53.30
2022-11-25T10:11:41.607Z,52.80
2022-11-25T10:12:41.138Z,52.69
2022-11-25T10:13:41.674Z,52.49
2022-11-25T10:14:42.251Z,52.69
2022-11-25T10:15:42.840Z,53.09
2022-11-25T10:16:48.546Z,51.92
2022-11-25T10:17:44.325Z,52.32
2022-11-25T10:18:44.994Z,52.82
2022-11-25T10:19:45.566Z,52.62
2022-11-25T10:20:46.132Z,52.22
2022-11-25T10:21:46.693Z,52.09
2022-11-25T10:22:47.345Z,52.09
2022-11-25T10:23:49.412Z,52.19
2022-11-25T10:25:36.810Z,51.89
2022-11-25T10:26:29.629Z,51.79
2022-11-25T10:27:05.627Z,51.29
2022-11-25T10:27:55.414Z,51.09
2022-11-25T10:28:58.588Z,50.59
2022-11-25T10:29:53.152Z,51.19
2022-11-25T10:30:53.501Z,50.29
2022-11-25T10:31:54.303Z,51.09
2022-11-25T10:32:59.306Z,51.37
2022-11-25T10:33:55.725Z,50.67
2022-11-25T10:35:09.548Z,51.17
2022-11-25T10:35:57.069Z,49.66
2022-11-25T10:37:01.711Z,49.07
2022-11-25T10:37:58.288Z,49.99
2022-11-25T10:38:58.823Z,50.29
2022-11-25T10:39:59.556Z,49.08
2022-11-25T10:41:00.212Z,50.19
2022-11-25T10:42:01.586Z,51.39
2022-11-25T10:43:01.596Z,51.19
2022-11-25T10:44:02.130Z,51.19
2022-11-25T10:45:02.728Z,51.39
2022-11-25T10:46:03.319Z,51.67
2022-11-25T10:47:19.102Z,51.29
2022-11-25T10:48:05.281Z,51.07
2022-11-25T10:49:05.368Z,50.57
2022-11-25T10:50:05.949Z,50.16
2022-11-25T10:51:06.468Z,50.26
2022-11-25T10:52:06.980Z,50.26
2022-11-25T10:53:07.496Z,50.07
2022-11-25T10:54:08.019Z,50.07
2022-11-25T10:55:08.616Z,49.87
2022-11-25T10:56:09.145Z,50.07
2022-11-25T10:57:09.674Z,50.26
2022-11-25T10:58:10.224Z,49.46
2022-11-25T10:59:10.732Z,50.16
2022-11-25T11:00:19.453Z,49.96
2022-11-25T11:01:12.112Z,50.26
2022-11-25T11:02:12.688Z,50.16
2022-11-25T11:03:13.362Z,50.37
2022-11-25T11:04:13.890Z,50.26
2022-11-25T11:05:14.524Z,49.07
2022-11-25T11:06:15.050Z,49.26
2022-11-25T11:07:15.619Z,50.46
2022-11-25T11:08:16.167Z,49.46
2022-11-25T11:09:16.710Z,49.87
2022-11-25T11:10:17.422Z,49.96
2022-11-25T11:11:17.957Z,49.37
2022-11-25T11:12:18.496Z,48.96
2022-11-25T11:13:19.012Z,49.87
2022-11-25T11:14:19.579Z,49.76
2022-11-25T11:15:20.347Z,49.96
2022-11-25T11:16:21.715Z,49.76
2022-11-25T11:17:22.117Z,48.16
2022-11-25T11:18:22.644Z,47.86
2022-11-25T11:19:23.156Z,48.76
2022-11-25T11:20:23.705Z,47.66
2022-11-25T11:21:24.290Z,48.07
2022-11-25T11:22:24.836Z,48.57
2022-11-25T11:23:28.609Z,49.46
2022-11-25T11:24:26.966Z,48.76
2022-11-25T11:25:27.006Z,49.16
2022-11-25T11:26:29.973Z,48.36
2022-11-25T11:27:29.525Z,49.14
2022-11-25T11:28:29.041Z,48.54
2022-11-25T11:29:30.730Z,48.44
2022-11-25T11:30:37.794Z,48.54
2022-11-25T11:31:31.278Z,49.14
2022-11-25T11:32:51.117Z,50.14
2022-11-25T11:33:40.114Z,50.24
2022-11-25T11:34:33.966Z,50.04
2022-11-25T11:35:37.720Z,50.44
2022-11-25T11:36:35.221Z,50.34
2022-11-25T11:37:35.807Z,50.24
2022-11-25T11:38:36.875Z,50.94
2022-11-25T11:39:37.668Z,50.14
2022-11-25T11:40:42.890Z,49.91
2022-11-25T11:41:38.713Z,49.91
2022-11-25T11:42:39.368Z,49.91
2022-11-25T11:43:40.062Z,49.91
2022-11-25T11:44:40.611Z,50.42
2022-11-25T11:45:41.471Z,50.34
2022-11-25T11:46:42.621Z,50.24
2022-11-25T11:47:43.035Z,50.34
2022-11-25T11:48:43.757Z,50.74
2022-11-25T11:49:44.572Z,50.84
2022-11-25T11:50:45.179Z,50.74
2022-11-25T11:51:46.207Z,51.04
2022-11-25T11:52:46.511Z,50.74
2022-11-25T11:54:14.962Z,50.84
2022-11-25T11:54:47.928Z,50.84
2022-11-25T11:56:05.571Z,51.04
2022-11-25T11:56:53.692Z,50.94
2022-11-25T11:58:03.739Z,50.74
2022-11-25T11:58:50.881Z,50.74
2022-11-25T11:59:51.410Z,50.94
2022-11-25T12:00:51.992Z,51.04
2022-11-25T12:01:52.567Z,50.84
2022-11-25T12:02:53.224Z,50.84
2022-11-25T12:03:54.501Z,50.64
2022-11-25T12:04:54.672Z,50.54
2022-11-25T12:05:55.290Z,50.57
2022-11-25T12:06:55.820Z,50.87
2022-11-25T12:07:56.454Z,50.87
2022-11-25T12:08:57.056Z,50.87
2022-11-25T12:09:57.565Z,51.07
2022-11-25T12:10:58.110Z,51.17
2022-11-25T12:11:58.619Z,51.27
2022-11-25T12:12:59.148Z,51.46
2022-11-25T12:14:01.119Z,51.89
2022-11-25T12:15:00.421Z,51.89
2022-11-25T12:16:01.180Z,52.09
2022-11-25T12:17:01.725Z,51.89
2022-11-25T12:18:02.255Z,52.09
2022-11-25T12:19:02.781Z,51.89
2022-11-25T12:20:03.304Z,51.69
2022-11-25T12:21:03.851Z,51.69
2022-11-25T12:22:04.368Z,51.69
2022-11-25T12:23:04.885Z,51.69
2022-11-25T12:24:05.406Z,51.79
2022-11-25T12:25:05.925Z,51.69
2022-11-25T12:26:06.467Z,51.89
2022-11-25T12:27:06.987Z,51.79
2022-11-25T12:28:07.521Z,51.69
2022-11-25T12:29:08.042Z,51.99
2022-11-25T12:30:08.563Z,52.29
2022-11-25T12:31:09.339Z,52.09
2022-11-25T12:32:09.856Z,52.29
2022-11-25T12:33:10.376Z,51.79
2022-11-25T12:34:10.894Z,51.49
2022-11-25T12:35:11.436Z,51.59
2022-11-25T12:36:11.986Z,51.69
2022-11-25T12:37:15.237Z,51.79
2022-11-25T12:38:12.994Z,51.89
2022-11-25T12:39:13.581Z,51.99
2022-11-25T12:40:14.119Z,52.09
2022-11-25T12:41:14.745Z,52.29
2022-11-25T12:42:15.260Z,52.39
2022-11-25T12:43:15.792Z,52.29
2022-11-25T12:44:16.312Z,51.79
2022-11-25T12:45:16.835Z,51.59
2022-11-25T12:46:17.523Z,51.89
2022-11-25T12:47:18.058Z,51.79
2022-11-25T12:48:21.485Z,51.79
2022-11-25T12:49:19.231Z,51.29
2022-11-25T12:50:19.749Z,51.49
2022-11-25T12:51:20.323Z,51.79
2022-11-25T12:52:20.853Z,51.92
2022-11-25T12:53:21.367Z,51.92
2022-11-25T12:54:21.889Z,51.82
2022-11-25T12:55:22.412Z,51.82
2022-11-25T12:56:22.982Z,52.01
2022-11-25T12:57:23.513Z,52.01
2022-11-25T12:58:24.114Z,52.12
2022-11-25T12:59:24.696Z,51.92
2022-11-25T13:00:42.361Z,51.32
2022-11-25T13:01:26.222Z,51.42
2022-11-25T13:02:26.826Z,51.62
2022-11-25T13:03:27.395Z,52.12
2022-11-25T13:04:27.918Z,52.01
2022-11-25T13:05:43.683Z,51.89
2022-11-25T13:06:29.396Z,51.59
2022-11-25T13:07:29.985Z,51.69
2022-11-25T13:08:30.530Z,50.99
2022-11-25T13:09:31.052Z,51.09
2022-11-25T13:10:31.572Z,50.99
2022-11-25T13:11:32.448Z,50.69
2022-11-25T13:12:33.239Z,50.79